Fontana, KS

8:48 PM CST on November 23, 2014 (GMT -0600)
South Jingo, KS (a.k.a. La Cygne / Linn Valley) | Change Station
CLOSE
Current Station
Personal Weather Station
Location: LaCygne, KS
Elevation: 1017 ft
Nearby Weather Stations

Elev 1017 ft 38.36 °N, 94.70 °W | Updated 3 seconds ago

Rain
Rain
40.3 °F
Feels Like 33 °F
N
13.4
Wind Variable Wind from North
Gusts 17.2 mph

Today
High -- | Low -- °F
--% Chance of Precip.
Yesterday
High -- | Low -- °F
Precip. -- in
7:09 AM 5:01 PM
Waxing Crescent, 3% visible
Pressure 29.47 in
Visibility 6.0 miles
Clouds Mostly Cloudy 1600 ft
Overcast 2100 ft
Windchill 33 °F
Dew Point 38 °F
Humidity 90%
Rainfall 0.04 in
Snow Depth Not available.
UV 0 out of 12
Pollen .10 out of 12
Air Quality Not available.
Flu Activity Not available.
METAR KIXD 240153Z 33025G34KT 6SM -RA BR BKN016 OVC021 04/03 A2947 RMK AO2 PK WND 32040/0126 SLP979 P0008 T00440033 $

More Conditions Fewer Conditions

Pressure 29.47 in
Visibility 6.0 miles
Clouds Mostly Cloudy 1600 ft
Overcast 2100 ft
Windchill 33 °F
Dew Point 38 °F
Humidity 90%
Rainfall 0.04 in
Snow Depth Not available.
UV 0 out of 12
Pollen .10 out of 12
Air Quality Not available.
Flu Activity Not available.
METAR KIXD 240153Z 33025G34KT 6SM -RA BR BKN016 OVC021 04/03 A2947 RMK AO2 PK WND 32040/0126 SLP979 P0008 T00440033 $

More Conditions Fewer Conditions

10-Day Weather Forecast

Almanac

Astronomy

Nov. 23, 2014 Rise Set
Actual Time
Civil Twilight
Nautical Twilight
Astronomical Twilight
Moon
Length of Visible Light
Length of Day
Tomorrow will be .
, % of the Moon is Illuminated

Today's Extremes

State Highs State Lows

Community

WunderPhotos

Upload Photos

1,773,257 photos uploaded!

WunderBlogs® & News

Nearby

Air Quality

  Air Quality AQ Index Pollutant
Not available.

Snow Depth

Station Depth Elevation

Earthquake Activity

City Distance Mag. Time & Date
Minimum magnitude displayed is 2.5.

Coastal Water Temperatures

Place Temperature

Nearby Weather Stations